Time;durP1;ratioP1;P1;durP2;ratioP2;P2;SDS_P1;SDS_P2;PMS_P1;PMS_P2;Temp;Humidity;BMP_temperature;BMP_pressure;BME280_temperature;BME280_humidity;BME280_pressure;Samples;Min_cycle;Max_cycle;Signal;HPM_P1;HPM_P2
2023/07/27 00:01:05;;;;;;;11.70;8.35;;;11.30;99.90;;;;;;5018484;28;20033;-75
2023/07/27 00:03:31;;;;;;;11.02;8.52;;;11.20;99.90;;;;;;5017210;28;20109;-77
2023/07/27 00:05:56;;;;;;;15.38;9.27;;;11.10;99.90;;;;;;5011400;28;20098;-76
2023/07/27 00:08:22;;;;;;;15.35;9.07;;;11.10;99.90;;;;;;5012344;28;20018;-75
2023/07/27 00:10:47;;;;;;;12.82;9.00;;;11.00;99.90;;;;;;5011404;28;20022;-75
2023/07/27 00:13:13;;;;;;;12.55;11.15;;;11.00;99.90;;;;;;5000974;28;20473;-76
2023/07/27 00:15:38;;;;;;;17.27;10.60;;;11.00;99.90;;;;;;5009868;28;20068;-76
2023/07/27 00:18:04;;;;;;;20.38;12.02;;;11.00;99.90;;;;;;5011192;28;20033;-75
2023/07/27 00:20:30;;;;;;;18.73;11.05;;;10.90;99.90;;;;;;5011140;28;20018;-77
2023/07/27 00:22:55;;;;;;;14.07;10.27;;;10.90;99.90;;;;;;5011787;28;20101;-75
2023/07/27 00:25:21;;;;;;;16.05;11.20;;;10.90;99.90;;;;;;5011930;28;20511;-77
2023/07/27 00:27:46;;;;;;;16.08;10.40;;;10.80;99.90;;;;;;5012220;28;20026;-78
2023/07/27 00:30:13;;;;;;;15.88;11.57;;;10.80;99.90;;;;;;5010820;28;20018;-77
2023/07/27 00:32:38;;;;;;;16.45;11.38;;;10.80;99.90;;;;;;5010968;28;20122;-75
2023/07/27 00:35:05;;;;;;;16.27;10.73;;;10.80;99.90;;;;;;5010723;28;20145;-77
2023/07/27 00:37:30;;;;;;;16.10;10.60;;;10.80;99.90;;;;;;5011238;28;20026;-75
2023/07/27 00:39:56;;;;;;;16.42;11.40;;;10.70;99.90;;;;;;5011688;28;20029;-78
2023/07/27 00:42:22;;;;;;;14.70;10.70;;;10.70;99.90;;;;;;5012199;28;20410;-76
2023/07/27 00:44:47;;;;;;;14.38;11.40;;;10.70;99.90;;;;;;5010268;28;20022;-76
2023/07/27 00:47:13;;;;;;;15.90;11.18;;;10.70;99.90;;;;;;5010691;28;20049;-78
2023/07/27 00:49:39;;;;;;;15.63;10.88;;;10.60;99.90;;;;;;5011885;28;20030;-75
2023/07/27 00:52:07;;;;;;;14.80;9.98;;;10.60;99.90;;;;;;5011872;28;20475;-77
2023/07/27 00:54:34;;;;;;;17.48;11.38;;;10.60;99.90;;;;;;5013443;28;20041;-77
2023/07/27 00:57:00;;;;;;;15.57;11.75;;;10.60;99.90;;;;;;5104735;28;20481;-78
2023/07/27 00:59:25;;;;;;;14.38;10.65;;;10.50;99.90;;;;;;5086186;28;20031;-78
2023/07/27 01:01:51;;;;;;;18.40;10.73;;;10.50;99.90;;;;;;5026927;28;20022;-75
2023/07/27 01:04:17;;;;;;;16.10;10.45;;;10.40;99.90;;;;;;5073958;28;20023;-78
2023/07/27 01:06:42;;;;;;;15.75;10.02;;;10.40;99.90;;;;;;5010459;28;20555;-77
2023/07/27 01:09:08;;;;;;;11.98;9.43;;;10.30;99.90;;;;;;4996666;28;20071;-77
2023/07/27 01:11:47;;;;;;;14.20;10.27;;;10.30;99.90;;;;;;5029579;28;20022;-75
2023/07/27 01:14:29;;;;;;;14.60;10.52;;;10.30;99.90;;;;;;5007099;28;20030;-78
2023/07/27 01:17:07;;;;;;;17.60;11.75;;;10.30;99.90;;;;;;5010447;28;20030;-76
2023/07/27 01:20:04;;;;;;;11.27;9.70;;;10.20;99.90;;;;;;5011248;28;20057;-76
2023/07/27 01:22:33;;;;;;;17.60;12.13;;;10.20;99.90;;;;;;5011449;28;20033;-78
2023/07/27 01:25:12;;;;;;;16.73;11.50;;;10.10;99.90;;;;;;5010209;28;20026;-75
2023/07/27 01:28:05;;;;;;;16.77;12.30;;;10.10;99.90;;;;;;5011296;28;20071;-78
2023/07/27 01:30:53;;;;;;;18.83;11.00;;;10.10;99.90;;;;;;5034056;28;20076;-76
2023/07/27 01:33:28;;;;;;;13.43;9.77;;;10.10;99.90;;;;;;4999240;28;20021;-75
2023/07/27 01:36:05;;;;;;;16.00;11.07;;;10.00;99.90;;;;;;5009800;28;20517;-78
2023/07/27 01:38:32;;;;;;;15.60;9.57;;;10.00;99.90;;;;;;5010148;28;20068;-76
2023/07/27 01:40:59;;;;;;;13.13;9.13;;;9.90;99.90;;;;;;5011240;28;20037;-76
2023/07/27 01:43:27;;;;;;;16.63;10.93;;;9.90;99.90;;;;;;5011126;28;20391;-75
2023/07/27 01:45:55;;;;;;;14.05;9.88;;;9.80;99.90;;;;;;5011187;28;20037;-76
2023/07/27 01:48:23;;;;;;;16.67;9.48;;;9.80;99.90;;;;;;5010889;28;20032;-77
2023/07/27 01:50:50;;;;;;;13.48;9.80;;;9.80;99.90;;;;;;5009910;28;20616;-75
2023/07/27 01:53:17;;;;;;;15.52;9.35;;;9.80;99.90;;;;;;5010819;28;20046;-78
2023/07/27 01:55:44;;;;;;;12.75;9.27;;;9.70;99.90;;;;;;5011046;28;20033;-76
2023/07/27 01:58:10;;;;;;;13.07;8.23;;;9.70;99.90;;;;;;5022189;28;20126;-76
2023/07/27 02:00:36;;;;;;;11.57;9.48;;;9.70;99.90;;;;;;5011196;28;20031;-78
2023/07/27 02:03:02;;;;;;;13.10;9.10;;;9.60;99.90;;;;;;5039219;28;20022;-78
2023/07/27 02:05:28;;;;;;;11.25;8.45;;;9.60;99.90;;;;;;5041748;28;20466;-77
2023/07/27 02:07:53;;;;;;;13.30;8.70;;;9.60;99.90;;;;;;5010735;28;20030;-75
2023/07/27 02:10:21;;;;;;;13.45;8.02;;;9.60;99.90;;;;;;5010749;28;20022;-78
2023/07/27 02:12:58;;;;;;;12.43;8.45;;;9.60;99.90;;;;;;5009542;28;20018;-78
2023/07/27 02:15:29;;;;;;;16.10;9.63;;;9.50;99.90;;;;;;5009277;28;20034;-78
2023/07/27 02:18:07;;;;;;;12.13;8.43;;;9.50;99.90;;;;;;5010851;28;20093;-76
2023/07/27 02:20:35;;;;;;;11.40;8.57;;;9.50;99.90;;;;;;5009286;28;20494;-78
2023/07/27 02:23:02;;;;;;;11.35;7.82;;;9.50;99.90;;;;;;5010576;28;20066;-76
2023/07/27 02:25:28;;;;;;;10.38;7.15;;;9.50;99.90;;;;;;5009314;28;20393;-77
2023/07/27 02:27:54;;;;;;;9.82;7.50;;;9.40;99.90;;;;;;5017932;28;20018;-76
2023/07/27 02:30:20;;;;;;;12.90;7.30;;;9.40;99.90;;;;;;5011836;28;20045;-77
2023/07/27 02:32:45;;;;;;;12.95;8.00;;;9.40;99.90;;;;;;5010511;28;20022;-77
2023/07/27 02:35:11;;;;;;;12.98;7.80;;;9.40;99.90;;;;;;5009083;28;20044;-76
2023/07/27 02:37:36;;;;;;;9.32;7.13;;;9.40;99.90;;;;;;5009271;28;20069;-76
2023/07/27 02:40:02;;;;;;;8.27;6.43;;;9.40;99.90;;;;;;5009055;28;20030;-76
2023/07/27 02:42:28;;;;;;;9.68;7.38;;;9.40;99.90;;;;;;5009389;28;20034;-75
2023/07/27 02:44:53;;;;;;;10.90;7.20;;;9.40;99.90;;;;;;5010153;28;20026;-77
2023/07/27 02:47:19;;;;;;;7.40;6.25;;;9.30;99.90;;;;;;5009596;28;20037;-76
2023/07/27 02:49:44;;;;;;;9.57;7.55;;;9.30;99.90;;;;;;5008875;28;20022;-75
2023/07/27 02:52:10;;;;;;;10.50;7.25;;;9.30;99.90;;;;;;5010237;28;20391;-75
2023/07/27 02:54:35;;;;;;;9.48;7.05;;;9.30;99.90;;;;;;5013217;28;20446;-76
2023/07/27 02:57:01;;;;;;;9.23;6.57;;;9.30;99.90;;;;;;5008927;28;20026;-78
2023/07/27 02:59:27;;;;;;;7.30;6.13;;;9.30;99.90;;;;;;5008713;28;20392;-76
2023/07/27 03:01:52;;;;;;;8.07;6.00;;;9.20;99.90;;;;;;5008888;28;20022;-77
2023/07/27 03:04:18;;;;;;;7.38;6.47;;;9.20;99.90;;;;;;5070395;28;20109;-76
2023/07/27 03:06:43;;;;;;;9.07;5.95;;;9.20;99.90;;;;;;5009971;28;20026;-76
2023/07/27 03:09:09;;;;;;;8.48;6.72;;;9.20;99.90;;;;;;5008526;28;20018;-76
2023/07/27 03:11:38;;;;;;;7.72;6.60;;;9.20;99.90;;;;;;5009910;28;20395;-76
2023/07/27 03:14:04;;;;;;;8.93;6.07;;;9.20;99.90;;;;;;5008431;28;20488;-76
2023/07/27 03:16:30;;;;;;;6.57;5.65;;;9.10;99.90;;;;;;5010012;28;20044;-76
2023/07/27 03:18:56;;;;;;;9.60;6.47;;;9.10;99.90;;;;;;5009742;28;20029;-76
2023/07/27 03:21:22;;;;;;;8.52;6.30;;;9.10;99.90;;;;;;5008609;28;20101;-76
2023/07/27 03:23:49;;;;;;;8.25;6.03;;;9.10;99.90;;;;;;5008182;28;20049;-76
2023/07/27 03:26:15;;;;;;;10.13;6.28;;;9.10;99.90;;;;;;5008701;28;20539;-75
2023/07/27 03:28:41;;;;;;;8.07;6.60;;;9.10;99.90;;;;;;5009562;28;20026;-77
2023/07/27 03:31:21;;;;;;;8.23;5.68;;;9.10;99.90;;;;;;5009888;28;20025;-77
2023/07/27 03:33:48;;;;;;;11.43;6.20;;;9.20;99.90;;;;;;5007907;28;20030;-75
2023/07/27 03:36:15;;;;;;;10.32;6.15;;;9.20;99.90;;;;;;5009711;28;20163;-77
2023/07/27 03:38:41;;;;;;;7.90;5.97;;;9.20;99.90;;;;;;4996830;28;20033;-76
2023/07/27 03:41:06;;;;;;;5.93;5.07;;;9.20;99.90;;;;;;5009512;28;20018;-77
2023/07/27 03:43:32;;;;;;;5.82;5.13;;;9.20;99.90;;;;;;5008460;28;20113;-75
2023/07/27 03:45:58;;;;;;;10.30;5.88;;;9.20;99.90;;;;;;5008198;28;20046;-77
2023/07/27 03:48:24;;;;;;;11.00;5.55;;;9.30;99.90;;;;;;5009503;28;20101;-77
2023/07/27 03:50:50;;;;;;;9.98;8.32;;;9.40;99.90;;;;;;5009392;28;20104;-75
2023/07/27 03:53:15;;;;;;;14.93;10.40;;;9.50;99.90;;;;;;5009463;28;20073;-75
2023/07/27 03:55:41;;;;;;;12.88;9.90;;;9.70;99.90;;;;;;5009133;28;20045;-75
2023/07/27 03:58:06;;;;;;;10.05;6.78;;;9.80;99.90;;;;;;5010755;28;20049;-76
2023/07/27 04:00:32;;;;;;;7.85;5.53;;;10.00;99.90;;;;;;5012761;28;20096;-78
2023/07/27 04:02:58;;;;;;;7.95;5.82;;;10.20;99.90;;;;;;5039393;28;20358;-78
2023/07/27 04:05:23;;;;;;;8.82;7.30;;;10.40;99.90;;;;;;5048413;28;20018;-80
2023/07/27 04:07:51;;;;;;;6.25;5.03;;;10.50;99.90;;;;;;5011406;28;20068;-78
2023/07/27 04:10:17;;;;;;;9.23;6.10;;;10.70;99.90;;;;;;5010552;28;20038;-76
2023/07/27 04:12:43;;;;;;;7.85;5.53;;;10.90;99.90;;;;;;5009415;28;20049;-76
2023/07/27 04:15:09;;;;;;;6.72;5.97;;;11.00;99.90;;;;;;5012509;28;20399;-75
2023/07/27 04:17:35;;;;;;;6.63;4.78;;;11.20;99.90;;;;;;5011256;28;20022;-78
2023/07/27 04:20:00;;;;;;;5.28;4.15;;;11.30;99.90;;;;;;5012485;28;20041;-78
2023/07/27 04:22:26;;;;;;;6.57;4.07;;;11.20;99.90;;;;;;5012491;28;20014;-78
2023/07/27 04:24:52;;;;;;;8.00;4.53;;;11.40;99.90;;;;;;5012257;28;20416;-77
2023/07/27 04:27:17;;;;;;;5.75;4.38;;;11.50;99.90;;;;;;5012292;28;20483;-78
2023/07/27 04:29:43;;;;;;;5.60;4.18;;;11.60;99.90;;;;;;5010281;28;20029;-76
2023/07/27 04:32:08;;;;;;;6.78;4.63;;;11.60;99.90;;;;;;5012062;28;20022;-76
2023/07/27 04:34:35;;;;;;;9.43;4.95;;;11.60;99.90;;;;;;5009350;28;20030;-76
2023/07/27 04:37:00;;;;;;;6.80;4.55;;;11.80;99.90;;;;;;5012246;28;20030;-76
2023/07/27 04:39:26;;;;;;;7.32;5.55;;;11.80;99.90;;;;;;5012060;28;20053;-76
2023/07/27 04:41:52;;;;;;;7.68;5.28;;;11.90;99.90;;;;;;5010912;28;20015;-76
2023/07/27 04:44:17;;;;;;;6.65;4.78;;;11.90;99.90;;;;;;5010542;28;20018;-76
2023/07/27 04:46:43;;;;;;;6.03;5.25;;;11.80;99.90;;;;;;5012266;28;20025;-76
2023/07/27 04:49:08;;;;;;;7.80;5.63;;;11.90;99.90;;;;;;5011881;28;20486;-77
2023/07/27 04:51:34;;;;;;;6.70;4.63;;;11.80;99.90;;;;;;5000019;28;20486;-76
2023/07/27 04:54:01;;;;;;;6.53;4.57;;;11.80;99.90;;;;;;5010689;28;20042;-76
2023/07/27 04:56:26;;;;;;;9.98;5.07;;;11.70;99.90;;;;;;5012122;28;20414;-77
2023/07/27 04:58:52;;;;;;;7.10;5.13;;;11.60;99.90;;;;;;5010594;28;20026;-77
2023/07/27 05:01:18;;;;;;;8.77;5.75;;;11.70;99.90;;;;;;4995815;28;20105;-76
2023/07/27 05:03:43;;;;;;;10.27;5.95;;;11.60;99.90;;;;;;5071960;28;20015;-76
2023/07/27 05:06:09;;;;;;;8.27;5.38;;;11.70;99.90;;;;;;5012903;28;20037;-76
2023/07/27 05:08:34;;;;;;;9.52;5.57;;;11.80;99.90;;;;;;5011818;28;20060;-76
2023/07/27 05:11:03;;;;;;;10.10;5.45;;;11.80;99.90;;;;;;5009864;28;20014;-76
2023/07/27 05:13:28;;;;;;;8.05;4.95;;;11.80;99.90;;;;;;5009586;28;20071;-77
2023/07/27 05:15:54;;;;;;;8.05;6.03;;;11.80;99.90;;;;;;5007936;28;20041;-77
2023/07/27 05:18:19;;;;;;;10.68;6.75;;;11.90;99.90;;;;;;5041567;28;20497;-76
2023/07/27 05:20:45;;;;;;;10.98;6.25;;;12.00;99.90;;;;;;4999692;28;20031;-78
2023/07/27 05:23:11;;;;;;;8.25;5.47;;;12.00;99.90;;;;;;4990631;28;20062;-78
2023/07/27 05:25:36;;;;;;;6.32;5.60;;;12.00;99.90;;;;;;4987511;28;20031;-78
2023/07/27 05:28:02;;;;;;;6.03;4.35;;;12.00;99.90;;;;;;5003956;28;20022;-76
2023/07/27 05:30:28;;;;;;;8.73;3.97;;;12.10;99.90;;;;;;5006802;28;20022;-76
2023/07/27 05:32:53;;;;;;;6.03;3.65;;;12.10;99.90;;;;;;5008245;28;20377;-77
2023/07/27 05:35:19;;;;;;;7.60;4.65;;;12.20;99.90;;;;;;5007937;28;20068;-76
2023/07/27 05:37:48;;;;;;;5.68;4.93;;;12.20;99.90;;;;;;5007597;28;20474;-77
2023/07/27 05:40:14;;;;;;;6.25;4.32;;;12.20;99.90;;;;;;5007541;28;20045;-76
2023/07/27 05:42:40;;;;;;;6.68;3.97;;;12.20;99.90;;;;;;5005603;28;20034;-78
2023/07/27 05:45:06;;;;;;;5.38;4.72;;;12.40;99.90;;;;;;5004535;28;20641;-78
2023/07/27 05:47:32;;;;;;;7.47;4.47;;;12.40;99.90;;;;;;5007691;28;20491;-77
2023/07/27 05:49:58;;;;;;;7.82;4.97;;;12.50;99.90;;;;;;5009162;28;20034;-76
2023/07/27 05:52:24;;;;;;;9.77;5.50;;;12.70;99.90;;;;;;5008609;28;20142;-76
2023/07/27 05:54:50;;;;;;;8.98;5.15;;;12.70;99.90;;;;;;5009980;28;20030;-78
2023/07/27 05:57:16;;;;;;;6.60;5.05;;;12.80;99.90;;;;;;4994715;28;20025;-79
2023/07/27 05:59:41;;;;;;;6.03;4.55;;;13.10;99.90;;;;;;5020903;28;20406;-79
2023/07/27 06:02:07;;;;;;;7.03;4.63;;;13.10;99.90;;;;;;5019068;28;20022;-79
2023/07/27 06:04:33;;;;;;;6.57;4.18;;;13.20;99.90;;;;;;5035992;28;20030;-79
2023/07/27 06:06:58;;;;;;;4.53;3.53;;;13.30;99.90;;;;;;5024814;28;20025;-76
2023/07/27 06:09:25;;;;;;;6.70;3.70;;;13.50;99.90;;;;;;5022028;28;20152;-77
2023/07/27 06:11:52;;;;;;;4.68;3.53;;;13.60;99.90;;;;;;4993905;28;20388;-77
2023/07/27 06:14:18;;;;;;;7.65;4.00;;;13.80;99.90;;;;;;4993037;28;20046;-79
2023/07/27 06:16:43;;;;;;;6.13;3.47;;;13.90;99.90;;;;;;4990809;28;20030;-79
2023/07/27 06:19:09;;;;;;;3.83;2.78;;;14.00;99.90;;;;;;4998567;28;20030;-79
2023/07/27 06:21:35;;;;;;;4.75;2.85;;;14.10;99.90;;;;;;4999701;28;20038;-78
2023/07/27 06:24:01;;;;;;;3.80;2.63;;;14.40;99.90;;;;;;5006097;28;20022;-79
2023/07/27 06:26:27;;;;;;;4.75;2.83;;;14.40;99.90;;;;;;4999268;28;20476;-80
2023/07/27 06:28:53;;;;;;;3.85;2.65;;;14.50;99.90;;;;;;4988798;28;20459;-80
2023/07/27 06:31:19;;;;;;;5.32;2.47;;;14.50;99.90;;;;;;4988209;28;20029;-79
2023/07/27 06:33:44;;;;;;;3.63;2.33;;;14.60;99.90;;;;;;5007606;28;20332;-79
2023/07/27 06:36:17;;;;;;;2.97;2.70;;;14.60;99.90;;;;;;5000484;28;20160;-79
2023/07/27 06:38:43;;;;;;;;;;;14.70;99.90;;;;;;5001855;28;20045;-79
2023/07/27 06:41:09;;;;;;;3.17;2.22;;;14.70;99.90;;;;;;5002095;28;19940;-78
2023/07/27 06:43:34;;;;;;;3.88;2.45;;;14.70;99.90;;;;;;5004628;28;20034;-80
2023/07/27 06:46:00;;;;;;;3.03;2.08;;;14.80;99.90;;;;;;5002580;28;20068;-79
2023/07/27 06:48:26;;;;;;;2.42;2.15;;;14.60;99.90;;;;;;5008018;28;20113;-79
2023/07/27 06:50:52;;;;;;;2.95;2.20;;;14.90;99.90;;;;;;5001276;28;20497;-79
2023/07/27 06:53:17;;;;;;;3.40;2.67;;;15.00;99.90;;;;;;5004926;28;20046;-80
2023/07/27 06:55:43;;;;;;;2.72;1.90;;;15.20;99.90;;;;;;5004143;28;20053;-80
2023/07/27 06:58:09;;;;;;;3.60;2.85;;;15.20;99.90;;;;;;5008712;28;20029;-80
2023/07/27 07:00:34;;;;;;;3.85;2.88;;;15.30;99.90;;;;;;5008827;28;20459;-80
2023/07/27 07:03:00;;;;;;;2.75;2.30;;;15.50;99.90;;;;;;5036985;28;20128;-79
2023/07/27 07:05:26;;;;;;;4.22;2.40;;;15.70;99.90;;;;;;5043488;28;20025;-80
2023/07/27 07:07:52;;;;;;;3.38;2.17;;;15.60;99.90;;;;;;5005757;28;20065;-79
2023/07/27 07:10:20;;;;;;;3.45;2.50;;;15.50;99.90;;;;;;4991709;28;20018;-80
2023/07/27 07:12:46;;;;;;;5.05;1.92;;;15.50;99.90;;;;;;4990212;28;20093;-80
2023/07/27 07:15:12;;;;;;;3.42;2.50;;;15.50;99.90;;;;;;4997782;28;20459;-80
2023/07/27 07:17:38;;;;;;;4.28;2.20;;;15.60;97.00;;;;;;5004000;28;20032;-79
2023/07/27 07:20:08;;;;;;;3.58;2.25;;;15.70;99.90;;;;;;4997428;28;20163;-79
2023/07/27 07:22:34;;;;;;;3.92;2.70;;;16.00;99.90;;;;;;4997552;28;20026;-79
2023/07/27 07:25:00;;;;;;;8.63;2.00;;;16.00;99.90;;;;;;5001336;28;20452;-79
2023/07/27 07:27:26;;;;;;;2.88;2.17;;;16.10;99.90;;;;;;4988669;28;20023;-79
2023/07/27 07:29:51;;;;;;;2.88;2.28;;;16.40;99.90;;;;;;4989695;28;20033;-79
2023/07/27 07:32:17;;;;;;;2.95;1.90;;;16.40;97.20;;;;;;4997857;28;20029;-79
2023/07/27 07:34:43;;;;;;;3.22;1.73;;;16.30;93.70;;;;;;5006018;28;20042;-79
2023/07/27 07:37:08;;;;;;;5.05;2.33;;;16.50;91.00;;;;;;4998443;28;20026;-80
2023/07/27 07:39:34;;;;;;;5.70;1.90;;;16.60;98.90;;;;;;4997811;28;20022;-79
2023/07/27 07:42:00;;;;;;;3.38;1.92;;;16.80;94.50;;;;;;4995936;28;20045;-79
2023/07/27 07:44:26;;;;;;;3.42;2.10;;;17.00;94.50;;;;;;5005219;28;20026;-79
2023/07/27 07:46:51;;;;;;;3.88;2.47;;;16.90;85.00;;;;;;5004714;28;20044;-79
2023/07/27 07:49:17;;;;;;;4.53;2.05;;;17.10;88.30;;;;;;4999473;28;20050;-79
2023/07/27 07:51:43;;;;;;;4.00;2.65;;;17.30;83.70;;;;;;5004956;28;20102;-79
2023/07/27 07:54:09;;;;;;;3.20;1.90;;;17.40;85.60;;;;;;4993117;28;20054;-80
2023/07/27 07:56:35;;;;;;;2.97;1.80;;;17.70;88.40;;;;;;4995076;28;20464;-79
2023/07/27 07:59:01;;;;;;;3.63;2.20;;;17.60;80.50;;;;;;4994492;28;20034;-79
2023/07/27 08:01:27;;;;;;;2.20;1.80;;;17.70;77.20;;;;;;4992777;28;20023;-79
2023/07/27 08:03:53;;;;;;;5.70;2.33;;;17.70;75.60;;;;;;5004030;28;20534;-79
2023/07/27 08:06:18;;;;;;;3.50;1.80;;;17.90;74.30;;;;;;5007843;28;20024;-79
2023/07/27 08:08:45;;;;;;;3.30;1.90;;;17.90;74.20;;;;;;4993425;28;20034;-79
2023/07/27 08:11:10;;;;;;;7.00;1.80;;;18.00;77.20;;;;;;5003977;28;20118;-79
2023/07/27 08:13:36;;;;;;;1.67;1.05;;;17.80;70.40;;;;;;4992670;28;20454;-79
2023/07/27 08:16:03;;;;;;;2.30;1.45;;;17.80;68.20;;;;;;5004300;28;20110;-79
2023/07/27 08:18:29;;;;;;;4.88;2.28;;;17.80;70.50;;;;;;4997307;28;20058;-79
2023/07/27 08:20:59;;;;;;;2.38;1.65;;;18.00;73.20;;;;;;4996503;28;20022;-79
2023/07/27 08:23:26;;;;;;;3.70;1.55;;;18.20;73.90;;;;;;4999037;28;20548;-79
2023/07/27 08:25:53;;;;;;;4.25;2.00;;;18.30;68.20;;;;;;4994942;28;20053;-79
2023/07/27 08:28:22;;;;;;;3.97;2.10;;;18.20;67.50;;;;;;4991573;28;20099;-79
2023/07/27 08:30:48;;;;;;;2.95;2.25;;;18.30;70.50;;;;;;4991116;28;20460;-79
2023/07/27 08:33:15;;;;;;;2.38;1.60;;;18.10;72.30;;;;;;4997118;28;20110;-79
2023/07/27 08:35:40;;;;;;;2.85;1.73;;;18.50;75.40;;;;;;4990978;28;20139;-80
2023/07/27 08:38:06;;;;;;;2.65;1.55;;;18.60;72.10;;;;;;4991886;28;20059;-79
2023/07/27 08:40:32;;;;;;;3.53;1.75;;;18.90;76.80;;;;;;4992495;28;20023;-79
2023/07/27 08:42:58;;;;;;;1.20;1.10;;;18.60;69.30;;;;;;5002612;28;20018;-79
2023/07/27 08:45:24;;;;;;;2.53;1.40;;;18.30;68.00;;;;;;4996161;28;20471;-79
2023/07/27 08:47:52;;;;;;;2.35;1.50;;;18.50;68.60;;;;;;5000234;28;20040;-79
2023/07/27 08:50:22;;;;;;;1.70;1.50;;;18.80;70.20;;;;;;5002205;28;20105;-79
2023/07/27 08:52:48;;;;;;;2.75;1.70;;;18.90;69.50;;;;;;5000345;28;20030;-79
2023/07/27 08:55:13;;;;;;;2.95;1.60;;;18.70;69.70;;;;;;4998671;28;20046;-79
2023/07/27 08:57:39;;;;;;;6.85;1.95;;;18.30;69.20;;;;;;5000057;28;20079;-79
2023/07/27 09:00:05;;;;;;;1.60;1.40;;;18.20;69.90;;;;;;5004646;28;20042;-79
2023/07/27 09:02:31;;;;;;;2.13;1.40;;;18.20;68.60;;;;;;4999266;28;20063;-79
2023/07/27 09:04:57;;;;;;;2.72;1.88;;;18.30;70.00;;;;;;4992054;28;20472;-79
2023/07/27 09:07:22;;;;;;;2.80;1.60;;;18.40;70.20;;;;;;4991484;28;20019;-78
2023/07/27 09:09:52;;;;;;;1.95;1.73;;;18.50;72.40;;;;;;4997751;28;20030;-79
2023/07/27 09:12:19;;;;;;;2.47;1.70;;;18.60;68.60;;;;;;5003974;28;20109;-79
2023/07/27 09:14:45;;;;;;;1.60;1.50;;;18.70;69.90;;;;;;4998392;28;20191;-79
2023/07/27 09:17:13;;;;;;;1.20;1.10;;;18.90;67.60;;;;;;4994115;28;20476;-79
2023/07/27 09:19:40;;;;;;;2.55;1.77;;;19.10;65.00;;;;;;4991466;28;20080;-79
2023/07/27 09:22:07;;;;;;;1.73;1.45;;;19.40;65.40;;;;;;4998462;28;20159;-80
2023/07/27 09:24:34;;;;;;;1.98;1.60;;;19.50;66.40;;;;;;5008157;28;20034;-80
2023/07/27 09:27:03;;;;;;;1.10;1.02;;;18.90;62.30;;;;;;5002492;28;20018;-78
2023/07/27 09:29:29;;;;;;;3.05;1.20;;;18.50;63.00;;;;;;5002539;28;20038;-78
2023/07/27 09:32:00;;;;;;;2.10;1.23;;;18.50;62.10;;;;;;4996133;28;20025;-79
2023/07/27 09:34:30;;;;;;;1.88;1.30;;;19.00;63.40;;;;;;4993671;28;20369;-79
2023/07/27 09:37:00;;;;;;;1.65;1.55;;;18.80;61.10;;;;;;4999562;28;20025;-79
2023/07/27 09:39:27;;;;;;;2.03;1.63;;;18.60;64.90;;;;;;5007236;28;20066;-78
2023/07/27 09:41:53;;;;;;;1.77;1.67;;;18.70;66.90;;;;;;4990780;28;20075;-78
2023/07/27 09:44:21;;;;;;;1.55;1.40;;;18.50;67.40;;;;;;4992813;28;20030;-78
2023/07/27 09:46:47;;;;;;;1.90;1.50;;;18.90;65.70;;;;;;4994489;28;20537;-78
2023/07/27 09:49:14;;;;;;;1.73;1.38;;;18.90;62.90;;;;;;5001906;28;20038;-79
2023/07/27 09:51:41;;;;;;;2.58;1.85;;;18.90;63.60;;;;;;5004258;28;20481;-78
2023/07/27 09:54:06;;;;;;;1.58;1.45;;;19.10;65.00;;;;;;4996813;28;20050;-78
2023/07/27 09:56:33;;;;;;;1.88;1.77;;;19.60;66.60;;;;;;5007113;28;20071;-78
2023/07/27 09:58:59;;;;;;;2.22;1.63;;;19.40;66.20;;;;;;5001088;28;20018;-77
2023/07/27 10:01:28;;;;;;;2.33;1.85;;;19.50;62.00;;;;;;5002298;28;20060;-76
2023/07/27 10:04:02;;;;;;;1.75;1.65;;;19.70;63.50;;;;;;5006184;28;20406;-76
2023/07/27 10:06:29;;;;;;;2.22;1.60;;;20.00;61.20;;;;;;4991816;28;20022;-77
2023/07/27 10:08:55;;;;;;;1.50;1.40;;;20.30;63.00;;;;;;4991200;28;20022;-77
2023/07/27 10:11:51;;;;;;;3.00;1.80;;;20.00;59.20;;;;;;4991819;28;20066;-76
2023/07/27 10:14:18;;;;;;;1.52;1.42;;;19.70;59.70;;;;;;4994202;28;20030;-77
2023/07/27 10:17:07;;;;;;;1.42;1.30;;;19.80;60.40;;;;;;4992134;28;20022;-78
2023/07/27 10:19:49;;;;;;;2.67;1.90;;;20.10;61.00;;;;;;4994800;28;20034;-78
2023/07/27 10:22:19;;;;;;;6.65;2.10;;;20.20;59.00;;;;;;4991740;28;20075;-77
2023/07/27 10:24:49;;;;;;;4.45;2.20;;;20.60;59.10;;;;;;4998345;28;20387;-77
2023/07/27 10:27:18;;;;;;;2.17;1.50;;;20.50;58.10;;;;;;5001402;28;20075;-77
2023/07/27 10:30:07;;;;;;;2.78;2.05;;;20.50;58.80;;;;;;4995703;28;20034;-78
2023/07/27 10:32:35;;;;;;;1.80;1.40;;;20.20;58.80;;;;;;4999368;28;20427;-78
2023/07/27 10:35:06;;;;;;;2.67;1.88;;;19.90;60.10;;;;;;5010495;28;20030;-77
2023/07/27 10:37:52;;;;;;;4.40;1.63;;;19.60;61.00;;;;;;5010414;28;20025;-77
2023/07/27 10:40:26;;;;;;;2.42;1.55;;;19.60;62.00;;;;;;5010251;28;20051;-78
2023/07/27 10:42:58;;;;;;;2.97;2.00;;;19.40;62.40;;;;;;5009347;28;20026;-78
2023/07/27 10:45:25;;;;;;;;;;;19.60;61.60;;;;;;5010666;28;20352;-78
2023/07/27 10:47:55;;;;;;;2.13;1.75;;;20.00;61.60;;;;;;5010460;28;19905;-78
2023/07/27 10:50:20;;;;;;;2.28;1.95;;;20.10;59.00;;;;;;5003438;28;20026;-77
2023/07/27 10:52:51;;;;;;;1.60;1.50;;;20.00;60.20;;;;;;5002596;28;20061;-77
2023/07/27 10:55:17;;;;;;;1.63;1.48;;;20.00;60.40;;;;;;5008660;28;20395;-78
2023/07/27 10:57:42;;;;;;;3.42;2.15;;;19.70;61.60;;;;;;5009926;28;20044;-77
2023/07/27 11:00:09;;;;;;;2.88;1.75;;;19.70;62.00;;;;;;5008618;28;20033;-77
2023/07/27 11:02:36;;;;;;;2.83;1.70;;;19.50;62.00;;;;;;5014003;28;20026;-78
2023/07/27 11:05:07;;;;;;;1.77;1.60;;;19.80;63.30;;;;;;4997257;28;20058;-77
2023/07/27 11:07:46;;;;;;;3.53;2.20;;;20.00;60.20;;;;;;5005877;28;20038;-78
2023/07/27 11:10:17;;;;;;;2.08;1.88;;;20.00;59.30;;;;;;5008096;28;20052;-79
2023/07/27 11:12:57;;;;;;;4.03;2.20;;;20.00;61.20;;;;;;5006533;28;20021;-78
2023/07/27 11:15:28;;;;;;;2.75;2.47;;;20.10;61.60;;;;;;4988869;28;20041;-78
2023/07/27 11:17:55;;;;;;;3.15;2.58;;;20.30;60.40;;;;;;5000157;28;20522;-78
2023/07/27 11:20:26;;;;;;;4.55;2.63;;;20.60;60.70;;;;;;5007839;28;20026;-78
2023/07/27 11:22:53;;;;;;;2.38;2.00;;;20.30;57.90;;;;;;5000469;28;20036;-79
2023/07/27 11:25:19;;;;;;;2.47;1.85;;;20.30;59.20;;;;;;5008125;28;20018;-78
2023/07/27 11:27:49;;;;;;;2.22;2.03;;;20.20;57.10;;;;;;5009785;28;20026;-78
2023/07/27 11:30:17;;;;;;;4.80;2.03;;;20.00;59.00;;;;;;5009822;28;20071;-77
2023/07/27 11:32:57;;;;;;;2.40;2.17;;;20.00;59.60;;;;;;4995064;28;20033;-79
2023/07/27 11:35:22;;;;;;;3.00;2.38;;;20.30;59.80;;;;;;4999298;28;20046;-78
2023/07/27 11:37:48;;;;;;;6.65;2.90;;;20.70;59.90;;;;;;4997971;28;20018;-78
2023/07/27 11:40:21;;;;;;;3.35;3.03;;;21.10;58.90;;;;;;4998243;28;20400;-78
2023/07/27 11:42:47;;;;;;;4.45;2.75;;;21.10;57.70;;;;;;4990860;28;20185;-78
2023/07/27 11:45:13;;;;;;;3.00;2.08;;;20.90;55.60;;;;;;5004924;28;20043;-78
2023/07/27 11:47:39;;;;;;;4.13;2.38;;;20.90;55.40;;;;;;5005330;28;20029;-77
2023/07/27 11:50:08;;;;;;;2.83;2.35;;;20.80;56.90;;;;;;5003297;28;20043;-78
2023/07/27 11:52:39;;;;;;;2.33;2.10;;;20.60;56.20;;;;;;5002190;28;20507;-77
2023/07/27 11:55:05;;;;;;;4.30;2.60;;;20.30;57.90;;;;;;4988680;28;20129;-78
2023/07/27 11:57:31;;;;;;;3.22;2.60;;;20.20;58.00;;;;;;4991900;28;20027;-77
2023/07/27 12:00:12;;;;;;;4.78;2.95;;;19.90;58.50;;;;;;5002353;28;20035;-77
2023/07/27 12:02:49;;;;;;;4.68;3.03;;;19.70;59.50;;;;;;4993684;28;20030;-78
2023/07/27 12:05:17;;;;;;;4.03;2.80;;;19.50;59.60;;;;;;5052726;28;20027;-77
2023/07/27 12:07:43;;;;;;;7.25;2.65;;;19.50;60.10;;;;;;5013153;28;20030;-78
2023/07/27 12:10:26;;;;;;;3.60;2.70;;;19.50;60.40;;;;;;5009368;28;20042;-78
2023/07/27 12:13:03;;;;;;;2.20;2.03;;;19.50;61.20;;;;;;5009267;28;20026;-77
2023/07/27 12:15:36;;;;;;;2.25;1.88;;;19.60;61.00;;;;;;5009197;28;20030;-77
2023/07/27 12:18:04;;;;;;;2.35;2.15;;;20.00;61.20;;;;;;4998665;28;20030;-78
2023/07/27 12:20:32;;;;;;;4.22;2.45;;;20.20;59.10;;;;;;5008999;28;20382;-78
2023/07/27 12:22:58;;;;;;;2.97;2.45;;;20.50;58.90;;;;;;5012573;28;20387;-78
2023/07/27 12:25:28;;;;;;;4.43;2.03;;;20.50;58.60;;;;;;5012277;28;20033;-77
2023/07/27 12:27:54;;;;;;;2.38;2.17;;;20.20;57.30;;;;;;5009956;28;20416;-78
2023/07/27 12:30:20;;;;;;;7.53;2.35;;;20.00;56.40;;;;;;5010415;28;20022;-78
2023/07/27 12:32:47;;;;;;;3.55;2.08;;;19.80;56.90;;;;;;5014004;28;20022;-78
2023/07/27 12:35:13;;;;;;;3.17;2.20;;;19.60;57.60;;;;;;5008938;28;20125;-78
2023/07/27 12:37:38;;;;;;;3.13;2.13;;;19.60;59.50;;;;;;5011091;28;20097;-78
2023/07/27 12:40:05;;;;;;;2.50;2.28;;;19.60;59.40;;;;;;4998875;28;20133;-78
2023/07/27 12:42:31;;;;;;;2.63;2.13;;;19.60;59.00;;;;;;5001287;28;20117;-77
2023/07/27 12:44:57;;;;;;;3.88;2.13;;;19.50;59.30;;;;;;5001545;28;20106;-77
2023/07/27 12:47:25;;;;;;;2.45;2.03;;;19.50;60.90;;;;;;4991155;28;20480;-77